Time;durP1;ratioP1;P1;durP2;ratioP2;P2;SDS_P1;SDS_P2;PMS_P1;PMS_P2;Temp;Humidity;BMP_temperature;BMP_pressure;BME280_temperature;BME280_humidity;BME280_pressure;Samples;Min_cycle;Max_cycle;Signal;HPM_P1;HPM_P2
2021/12/20 00:02:03;;;;;;;;;;;7.70;59.10;;;;;;6197476;23;19904;-93
2021/12/20 00:04:28;;;;;;;;;;;7.70;59.00;;;;;;6198384;23;19910;-93
2021/12/20 00:06:56;;;;;;;;;;;7.60;59.20;;;;;;6224005;23;19927;-92
2021/12/20 00:09:21;;;;;;;;;;;7.60;59.30;;;;;;6196849;23;20288;-92
2021/12/20 00:11:46;;;;;;;;;;;7.50;59.30;;;;;;6198540;23;19986;-91
2021/12/20 00:14:12;;;;;;;;;;;7.50;59.40;;;;;;6222706;23;20309;-91
2021/12/20 00:16:37;;;;;;;;;;;7.60;59.60;;;;;;6222621;23;19915;-92
2021/12/20 00:19:04;;;;;;;;;;;7.60;59.60;;;;;;6221779;23;19924;-92
2021/12/20 00:21:29;;;;;;;;;;;7.50;59.80;;;;;;6193455;23;19991;-92
2021/12/20 00:23:55;;;;;;;;;;;7.50;60.10;;;;;;6194203;23;19923;-92
2021/12/20 00:26:20;;;;;;;;;;;7.60;60.40;;;;;;6195514;23;19912;-92
2021/12/20 00:28:46;;;;;;;;;;;7.60;60.90;;;;;;6222095;23;19916;-91
2021/12/20 00:31:11;;;;;;;;;;;7.70;61.30;;;;;;6195964;23;19933;-92
2021/12/20 00:33:37;;;;;;;;;;;7.80;61.60;;;;;;6197032;23;19927;-92
2021/12/20 00:36:04;;;;;;;;;;;8.00;61.80;;;;;;6196159;23;19904;-93
2021/12/20 00:41:13;;;;;;;;;;;8.20;61.90;;;;;;6221084;23;19931;-92
2021/12/20 00:43:39;;;;;;;;;;;8.20;62.00;;;;;;6220871;23;19920;-92
2021/12/20 00:46:04;;;;;;;;;;;8.30;61.90;;;;;;6194049;23;19943;-94
2021/12/20 00:48:30;;;;;;;;;;;8.30;62.00;;;;;;6220864;23;19916;-92
2021/12/20 00:50:55;;;;;;;;;;;8.40;62.10;;;;;;6196966;23;19983;-93
2021/12/20 00:53:22;;;;;;;;;;;8.50;62.20;;;;;;6196986;23;19994;-92
2021/12/20 00:55:48;;;;;;;;;;;8.60;62.20;;;;;;6195678;23;19908;-93
2021/12/20 00:58:14;;;;;;;;;;;8.60;62.20;;;;;;6198085;23;19908;-93
2021/12/20 01:00:45;;;;;;;;;;;8.70;62.10;;;;;;6197579;23;19986;-91
2021/12/20 01:03:11;;;;;;;;;;;8.70;62.10;;;;;;6197884;23;19916;-90
2021/12/20 01:05:38;;;;;;;;;;;8.70;62.00;;;;;;6193201;23;19904;-93
2021/12/20 01:08:05;;;;;;;;;;;8.70;61.90;;;;;;6194738;23;19967;-92
2021/12/20 01:10:32;;;;;;;;;;;8.70;61.90;;;;;;6195865;23;19904;-93
2021/12/20 01:13:00;;;;;;;;;;;8.70;61.90;;;;;;6220801;23;20321;-92
2021/12/20 01:15:28;;;;;;;;;;;8.80;61.90;;;;;;6196614;23;19904;-94
2021/12/20 01:17:53;;;;;;;;;;;8.80;61.90;;;;;;6196881;23;20011;-92
2021/12/20 01:20:19;;;;;;;;;;;8.80;61.90;;;;;;6222733;23;19908;-94
2021/12/20 01:22:46;;;;;;;;;;;8.90;61.70;;;;;;6196228;23;19966;-92
2021/12/20 01:25:12;;;;;;;;;;;8.90;61.60;;;;;;6194716;23;19911;-93
2021/12/20 01:27:37;;;;;;;;;;;8.80;61.60;;;;;;6223868;23;19915;-93
2021/12/20 01:30:05;;;;;;;;;;;8.80;61.50;;;;;;6198465;23;19903;-92
2021/12/20 01:32:31;;;;;;;;;;;8.80;61.30;;;;;;6221276;23;19938;-92
2021/12/20 01:34:56;;;;;;;;;;;8.70;61.00;;;;;;6221418;23;19935;-92
2021/12/20 01:37:21;;;;;;;;;;;8.60;60.70;;;;;;6222228;23;19948;-92
2021/12/20 01:39:47;;;;;;;;;;;8.50;60.30;;;;;;6195949;23;19908;-92
2021/12/20 01:42:16;;;;;;;;;;;8.40;59.90;;;;;;6195819;23;20247;-91
2021/12/20 01:44:42;;;;;;;;;;;8.20;59.30;;;;;;6193649;23;19912;-92
2021/12/20 01:47:08;;;;;;;;;;;8.10;58.70;;;;;;6194127;23;20027;-92
2021/12/20 01:49:42;;;;;;;;;;;8.00;58.60;;;;;;6221548;23;19907;-92
2021/12/20 01:52:14;;;;;;;;;;;7.90;59.00;;;;;;6194802;23;20400;-93
2021/12/20 01:54:40;;;;;;;;;;;7.80;59.50;;;;;;6194827;23;19916;-92
2021/12/20 01:57:05;;;;;;;;;;;7.80;59.80;;;;;;6196496;23;19969;-93
2021/12/20 01:59:31;;;;;;;;;;;7.80;59.90;;;;;;6222041;23;19911;-93
2021/12/20 02:01:56;;;;;;;;;;;7.70;60.20;;;;;;6195778;23;19983;-94
2021/12/20 02:04:23;;;;;;;;;;;7.70;60.20;;;;;;6222318;23;19935;-92
2021/12/20 02:06:49;;;;;;;;;;;7.70;59.90;;;;;;6195578;23;20329;-93
2021/12/20 02:09:16;;;;;;;;;;;7.50;59.50;;;;;;6195150;23;19919;-91
2021/12/20 02:11:43;;;;;;;;;;;7.50;59.10;;;;;;6197257;23;20237;-94
2021/12/20 02:14:08;;;;;;;;;;;7.40;59.10;;;;;;6196508;23;19923;-92
2021/12/20 02:16:34;;;;;;;;;;;7.40;59.30;;;;;;6221997;23;20188;-92
2021/12/20 02:19:00;;;;;;;;;;;7.40;59.50;;;;;;6219895;23;19916;-92
2021/12/20 02:21:26;;;;;;;;;;;7.30;59.60;;;;;;6219681;23;19904;-91
2021/12/20 02:23:51;;;;;;;;;;;7.30;59.90;;;;;;6219534;23;20368;-92
2021/12/20 02:26:19;;;;;;;;;;;7.30;60.00;;;;;;6219832;23;19950;-92
2021/12/20 02:28:47;;;;;;;;;;;7.30;60.40;;;;;;6193604;23;19908;-92
2021/12/20 02:39:13;;;;;;;;;;;7.60;62.00;;;;;;6220777;23;19994;-93
2021/12/20 02:41:39;;;;;;;;;;;7.70;62.30;;;;;;6194487;23;19951;-92
2021/12/20 02:44:06;;;;;;;;;;;7.80;62.30;;;;;;6193647;23;19908;-93
2021/12/20 02:49:02;;;;;;;;;;;7.80;61.20;;;;;;6220119;23;19908;-92
2021/12/20 02:51:28;;;;;;;;;;;7.70;60.30;;;;;;6193256;23;20325;-93
2021/12/20 02:53:54;;;;;;;;;;;7.70;59.70;;;;;;6193855;23;19912;-93
2021/12/20 02:56:20;;;;;;;;;;;7.60;59.20;;;;;;6221141;23;19936;-93
2021/12/20 02:58:45;;;;;;;;;;;7.60;59.10;;;;;;6195448;23;19908;-93
2021/12/20 03:01:11;;;;;;;;;;;7.50;59.10;;;;;;6195537;23;19916;-92
2021/12/20 03:03:37;;;;;;;;;;;7.50;59.10;;;;;;6195836;23;19915;-93
2021/12/20 03:06:20;;;;;;;;;;;7.40;59.10;;;;;;6197081;23;19912;-93
2021/12/20 03:08:48;;;;;;;;;;;7.40;59.20;;;;;;6196387;23;19904;-94
2021/12/20 03:11:14;;;;;;;;;;;7.30;59.40;;;;;;6223042;23;19939;-93
2021/12/20 03:13:41;;;;;;;;;;;7.30;59.50;;;;;;6196859;23;19904;-93
2021/12/20 03:16:06;;;;;;;;;;;7.30;59.50;;;;;;6196693;23;19912;-91
2021/12/20 03:18:32;;;;;;;;;;;7.30;59.50;;;;;;6222484;23;19991;-92
2021/12/20 03:20:57;;;;;;;;;;;7.20;59.40;;;;;;6195855;23;19920;-93
2021/12/20 03:23:23;;;;;;;;;;;7.20;59.20;;;;;;6196338;23;20593;-93
2021/12/20 03:25:48;;;;;;;;;;;7.10;59.00;;;;;;6198441;23;19916;-93
2021/12/20 03:28:14;;;;;;;;;;;7.00;59.10;;;;;;6198219;23;20249;-93
2021/12/20 03:30:39;;;;;;;;;;;7.00;59.30;;;;;;6222920;23;19928;-93
2021/12/20 03:33:05;;;;;;;;;;;6.90;59.60;;;;;;6224594;23;19956;-93
2021/12/20 03:35:30;;;;;;;;;;;6.90;60.00;;;;;;6223433;23;20304;-93
2021/12/20 03:37:56;;;;;;;;;;;7.00;60.30;;;;;;6222742;23;19911;-92
2021/12/20 03:40:22;;;;;;;;;;;7.00;60.70;;;;;;6196478;23;19912;-93
2021/12/20 03:42:47;;;;;;;;;;;7.00;60.90;;;;;;6222985;23;19919;-93
2021/12/20 03:45:14;;;;;;;;;;;7.10;61.20;;;;;;6196887;23;19915;-93
2021/12/20 03:47:40;;;;;;;;;;;7.20;61.50;;;;;;6197222;23;19935;-88
2021/12/20 03:50:06;;;;;;;;;;;7.30;62.00;;;;;;6191250;23;19936;-87
2021/12/20 03:52:31;;;;;;;;;;;7.40;62.20;;;;;;6217434;23;19904;-88
2021/12/20 03:54:59;;;;;;;;;;;7.50;62.40;;;;;;6217832;23;19920;-88
2021/12/20 03:57:24;;;;;;;;;;;7.60;62.50;;;;;;6191334;23;19904;-88
2021/12/20 03:59:52;;;;;;;;;;;7.70;62.50;;;;;;6190046;23;20228;-88
2021/12/20 04:02:19;;;;;;;;;;;7.80;62.50;;;;;;6191227;23;20275;-88
2021/12/20 04:04:45;;;;;;;;;;;7.90;62.50;;;;;;6216905;23;20335;-88
2021/12/20 04:07:10;;;;;;;;;;;8.00;62.60;;;;;;6215847;23;19935;-88
2021/12/20 04:09:36;;;;;;;;;;;8.20;62.60;;;;;;6217521;23;19911;-87
2021/12/20 04:12:01;;;;;;;;;;;8.30;62.70;;;;;;6190282;23;19908;-88
2021/12/20 04:14:27;;;;;;;;;;;8.40;62.60;;;;;;6218464;23;19934;-88
2021/12/20 04:16:52;;;;;;;;;;;8.50;62.50;;;;;;6219142;23;19915;-87
2021/12/20 04:19:18;;;;;;;;;;;8.60;62.50;;;;;;6190548;23;19908;-87
2021/12/20 04:21:43;;;;;;;;;;;8.60;62.40;;;;;;6217708;23;19908;-87
2021/12/20 04:24:08;;;;;;;;;;;8.70;62.20;;;;;;6190415;23;19908;-88
2021/12/20 04:26:34;;;;;;;;;;;8.70;62.20;;;;;;6217527;23;19943;-88
2021/12/20 04:28:59;;;;;;;;;;;8.80;62.10;;;;;;6190767;23;19911;-87
2021/12/20 04:31:25;;;;;;;;;;;8.80;62.10;;;;;;6217670;23;19915;-87
2021/12/20 04:33:50;;;;;;;;;;;8.80;62.00;;;;;;6215949;23;19986;-88
2021/12/20 04:36:16;;;;;;;;;;;8.90;61.90;;;;;;6215860;23;19982;-87
2021/12/20 04:38:43;;;;;;;;;;;8.90;62.00;;;;;;6191118;23;20343;-87
2021/12/20 04:41:09;;;;;;;;;;;8.90;62.10;;;;;;6215988;23;19908;-87
2021/12/20 04:43:34;;;;;;;;;;;8.80;62.20;;;;;;6217426;23;20244;-87
2021/12/20 04:46:00;;;;;;;;;;;8.90;62.30;;;;;;6190765;23;19912;-87
2021/12/20 04:48:25;;;;;;;;;;;8.90;62.20;;;;;;6217407;23;19915;-87
2021/12/20 04:50:51;;;;;;;;;;;9.00;62.20;;;;;;6218090;23;19908;-88
2021/12/20 04:53:16;;;;;;;;;;;9.00;62.20;;;;;;6216020;23;19908;-88
2021/12/20 04:55:42;;;;;;;;;;;9.00;62.10;;;;;;6217736;23;19998;-88
2021/12/20 04:58:07;;;;;;;;;;;9.00;62.10;;;;;;6217542;23;19912;-88
2021/12/20 05:00:35;;;;;;;;;;;9.10;62.10;;;;;;6215761;23;19912;-88
2021/12/20 05:03:01;;;;;;;;;;;9.10;62.10;;;;;;6191119;23;20308;-87
2021/12/20 05:05:28;;;;;;;;;;;9.20;62.00;;;;;;6190387;23;19951;-87
2021/12/20 05:07:54;;;;;;;;;;;9.20;61.90;;;;;;6190335;23;19904;-87
2021/12/20 05:10:27;;;;;;;;;;;9.20;61.80;;;;;;6217073;23;19939;-87
2021/12/20 05:12:57;;;;;;;;;;;9.20;61.80;;;;;;6217123;23;20412;-88
2021/12/20 05:15:23;;;;;;;;;;;9.10;61.80;;;;;;6215698;23;19912;-88
2021/12/20 05:17:49;;;;;;;;;;;9.10;61.80;;;;;;6190440;23;19990;-88
2021/12/20 05:20:15;;;;;;;;;;;9.10;61.80;;;;;;6215621;23;19947;-87
2021/12/20 05:22:40;;;;;;;;;;;9.10;61.80;;;;;;6216533;23;19908;-88
2021/12/20 05:25:06;;;;;;;;;;;9.20;61.80;;;;;;6190079;23;19912;-88
2021/12/20 05:27:32;;;;;;;;;;;9.20;61.60;;;;;;6217004;23;19955;-88
2021/12/20 05:29:59;;;;;;;;;;;9.20;61.60;;;;;;6217083;23;20317;-88
2021/12/20 05:32:24;;;;;;;;;;;9.20;61.50;;;;;;6214756;23;19904;-88
2021/12/20 05:34:50;;;;;;;;;;;9.10;61.30;;;;;;6215076;23;19919;-88
2021/12/20 05:37:16;;;;;;;;;;;9.10;61.30;;;;;;6189943;23;19935;-87
2021/12/20 05:39:42;;;;;;;;;;;9.10;61.30;;;;;;6217299;23;19912;-87
2021/12/20 05:42:07;;;;;;;;;;;9.00;61.00;;;;;;6216278;23;19931;-87
2021/12/20 05:44:33;;;;;;;;;;;9.00;61.00;;;;;;6214855;23;19916;-86
2021/12/20 05:46:59;;;;;;;;;;;9.00;61.00;;;;;;6217132;23;19904;-86
2021/12/20 05:49:24;;;;;;;;;;;8.90;61.00;;;;;;6190628;23;19942;-87
2021/12/20 05:51:50;;;;;;;;;;;8.90;61.00;;;;;;6215031;23;20327;-87
2021/12/20 05:54:15;;;;;;;;;;;8.90;61.10;;;;;;6215001;23;19931;-87
2021/12/20 05:56:41;;;;;;;;;;;9.00;61.20;;;;;;6190355;23;20011;-87
2021/12/20 05:59:06;;;;;;;;;;;9.00;61.20;;;;;;6190361;23;20283;-88
2021/12/20 06:01:32;;;;;;;;;;;9.00;61.20;;;;;;6190044;23;19904;-88
2021/12/20 06:03:57;;;;;;;;;;;9.00;61.10;;;;;;6214723;23;20525;-87
2021/12/20 06:06:27;;;;;;;;;;;8.90;61.00;;;;;;6190603;23;19935;-88
2021/12/20 06:08:52;;;;;;;;;;;8.90;60.90;;;;;;6190063;23;19911;-88
2021/12/20 06:11:18;;;;;;;;;;;8.90;61.00;;;;;;6217287;23;19912;-89
2021/12/20 06:13:43;;;;;;;;;;;8.80;60.90;;;;;;6196590;23;19908;-93
2021/12/20 06:16:09;;;;;;;;;;;8.80;61.00;;;;;;6199660;23;19920;-93
2021/12/20 06:18:34;;;;;;;;;;;8.80;60.90;;;;;;6221761;23;19915;-93
2021/12/20 06:21:00;;;;;;;;;;;8.80;60.70;;;;;;6196884;23;19916;-93
2021/12/20 06:23:25;;;;;;;;;;;8.70;60.60;;;;;;6222353;23;19954;-94
2021/12/20 06:25:51;;;;;;;;;;;8.70;60.80;;;;;;6196897;23;19919;-94
2021/12/20 06:28:19;;;;;;;;;;;8.70;60.90;;;;;;6196387;23;19911;-93
2021/12/20 06:30:44;;;;;;;;;;;8.70;60.90;;;;;;6197202;23;19916;-94
2021/12/20 06:33:10;;;;;;;;;;;8.70;60.80;;;;;;6195727;23;19904;-93
2021/12/20 06:35:36;;;;;;;;;;;8.60;60.90;;;;;;6195696;23;19919;-93
2021/12/20 06:38:03;;;;;;;;;;;8.60;60.90;;;;;;6223929;23;19898;-93
2021/12/20 06:40:29;;;;;;;;;;;8.60;60.80;;;;;;6198102;23;20330;-93
2021/12/20 06:42:55;;;;;;;;;;;8.60;60.90;;;;;;6194255;23;19908;-92
2021/12/20 06:45:20;;;;;;;;;;;8.60;61.10;;;;;;6221374;23;19954;-94
2021/12/20 06:47:46;;;;;;;;;;;8.60;61.00;;;;;;6221044;23;19908;-94
2021/12/20 06:50:11;;;;;;;;;;;8.60;61.00;;;;;;6196476;23;19896;-93
2021/12/20 06:52:37;;;;;;;;;;;8.60;60.90;;;;;;6222197;23;19912;-94
2021/12/20 06:55:02;;;;;;;;;;;8.60;61.10;;;;;;6194771;23;20325;-94
2021/12/20 06:57:28;;;;;;;;;;;8.60;61.00;;;;;;6195542;23;19904;-95
2021/12/20 06:59:53;;;;;;;;;;;8.60;61.10;;;;;;6220047;23;19912;-93
2021/12/20 07:02:19;;;;;;;;;;;8.60;61.00;;;;;;6194254;23;20003;-93
2021/12/20 07:04:44;;;;;;;;;;;8.60;61.10;;;;;;6222095;23;19966;-91
2021/12/20 07:07:10;;;;;;;;;;;8.50;61.00;;;;;;6195412;23;19927;-92
2021/12/20 07:09:35;;;;;;;;;;;8.60;61.10;;;;;;6195379;23;19912;-94
2021/12/20 07:12:03;;;;;;;;;;;8.50;61.20;;;;;;6220875;23;19915;-92
2021/12/20 07:14:34;;;;;;;;;;;8.50;61.40;;;;;;6194493;23;19912;-92
2021/12/20 07:17:00;;;;;;;;;;;8.50;61.40;;;;;;6221456;23;19910;-93
2021/12/20 07:19:26;;;;;;;;;;;8.50;61.20;;;;;;6195649;23;19936;-93
2021/12/20 07:21:51;;;;;;;;;;;8.50;61.10;;;;;;6196644;23;19927;-94
2021/12/20 07:24:17;;;;;;;;;;;8.50;61.00;;;;;;6221958;23;19922;-94
2021/12/20 07:26:43;;;;;;;;;;;8.50;60.80;;;;;;6195491;23;19888;-94
2021/12/20 07:29:08;;;;;;;;;;;8.50;60.70;;;;;;6195490;23;20596;-94
2021/12/20 07:31:34;;;;;;;;;;;8.50;60.80;;;;;;6222671;23;19915;-94
2021/12/20 07:33:59;;;;;;;;;;;8.50;60.70;;;;;;6196495;23;19908;-94
2021/12/20 07:36:25;;;;;;;;;;;8.50;60.70;;;;;;6196562;23;19952;-96
2021/12/20 07:38:51;;;;;;;;;;;8.50;60.70;;;;;;6222042;23;20261;-95
2021/12/20 07:41:18;;;;;;;;;;;8.40;60.60;;;;;;6195682;23;19920;-93
2021/12/20 07:43:46;;;;;;;;;;;8.50;60.90;;;;;;6170659;23;22075;-93
2021/12/20 07:46:12;;;;;;;;;;;8.40;60.90;;;;;;6194291;23;19959;-93
2021/12/20 07:48:37;;;;;;;;;;;8.40;60.90;;;;;;6198160;23;20336;-95
2021/12/20 07:51:06;;;;;;;;;;;8.40;61.00;;;;;;6199342;23;19904;-94
2021/12/20 07:53:33;;;;;;;;;;;8.50;61.20;;;;;;6228161;23;19946;-94
2021/12/20 07:55:59;;;;;;;;;;;8.50;61.00;;;;;;6202051;23;19908;-93
2021/12/20 07:58:24;;;;;;;;;;;8.50;61.00;;;;;;6196989;23;19915;-94
2021/12/20 08:00:50;;;;;;;;;;;8.50;60.90;;;;;;6198322;23;19943;-94
2021/12/20 08:03:16;;;;;;;;;;;8.50;60.60;;;;;;6196649;23;19919;-94
2021/12/20 08:05:41;;;;;;;;;;;8.40;60.80;;;;;;6197209;23;19915;-93
2021/12/20 08:08:07;;;;;;;;;;;8.40;60.90;;;;;;6197435;23;20644;-93
2021/12/20 08:10:33;;;;;;;;;;;8.40;60.70;;;;;;6200497;23;19963;-93
2021/12/20 08:12:58;;;;;;;;;;;8.40;60.90;;;;;;6224831;23;20244;-93
2021/12/20 08:15:26;;;;;;;;;;;8.40;60.90;;;;;;6200253;23;19911;-92
2021/12/20 08:17:52;;;;;;;;;;;8.50;61.20;;;;;;6198563;23;19919;-93
2021/12/20 08:20:19;;;;;;;;;;;8.50;61.10;;;;;;6226569;23;19955;-93
2021/12/20 08:22:44;;;;;;;;;;;8.50;61.00;;;;;;6200119;23;19940;-93
2021/12/20 08:25:12;;;;;;;;;;;8.50;60.20;;;;;;6198684;23;20321;-93
2021/12/20 08:27:38;;;;;;;;;;;8.40;60.30;;;;;;6198857;23;19908;-93
2021/12/20 08:30:06;;;;;;;;;;;8.40;60.70;;;;;;6224440;23;19908;-95
2021/12/20 08:32:32;;;;;;;;;;;8.50;60.70;;;;;;6175245;23;19903;-95
2021/12/20 08:34:58;;;;;;;;;;;8.50;60.90;;;;;;6200636;23;19923;-95
2021/12/20 08:37:23;;;;;;;;;;;8.50;61.00;;;;;;6202033;23;19908;-96
2021/12/20 08:39:49;;;;;;;;;;;8.50;61.10;;;;;;6201723;23;19935;-96
2021/12/20 08:42:14;;;;;;;;;;;8.50;61.00;;;;;;6200575;23;19927;-93
2021/12/20 08:44:40;;;;;;;;;;;8.50;61.00;;;;;;6226933;23;19915;-94
2021/12/20 08:47:05;;;;;;;;;;;8.50;61.10;;;;;;6203030;23;19888;-96
2021/12/20 08:49:31;;;;;;;;;;;8.50;60.90;;;;;;6202731;23;19943;-96
2021/12/20 08:51:59;;;;;;;;;;;8.60;61.10;;;;;;6204397;23;19911;-94
2021/12/20 08:54:27;;;;;;;;;;;8.70;61.10;;;;;;6225484;23;19939;-94
2021/12/20 08:56:53;;;;;;;;;;;8.70;61.10;;;;;;6201515;23;19904;-95
2021/12/20 08:59:18;;;;;;;;;;;8.70;61.00;;;;;;6203415;23;19918;-95
2021/12/20 09:01:44;;;;;;;;;;;8.70;61.00;;;;;;6200442;23;19907;-95
2021/12/20 09:04:10;;;;;;;;;;;8.80;61.10;;;;;;6199957;23;19908;-94
2021/12/20 09:06:39;;;;;;;;;;;8.80;61.10;;;;;;6201176;23;19974;-94
2021/12/20 09:09:12;;;;;;;;;;;8.80;61.00;;;;;;6200263;23;20572;-93
2021/12/20 09:11:39;;;;;;;;;;;8.80;61.20;;;;;;6202520;23;19907;-94
2021/12/20 09:14:04;;;;;;;;;;;8.90;61.30;;;;;;6228146;23;19941;-94
2021/12/20 09:16:30;;;;;;;;;;;8.90;60.90;;;;;;6201330;23;19907;-94
2021/12/20 09:18:57;;;;;;;;;;;9.00;61.00;;;;;;6199582;23;19922;-92
2021/12/20 09:21:22;;;;;;;;;;;9.00;61.20;;;;;;6200067;23;19939;-93
2021/12/20 09:23:48;;;;;;;;;;;9.10;61.20;;;;;;6224291;23;19912;-93
2021/12/20 09:26:14;;;;;;;;;;;9.10;61.40;;;;;;6224163;23;19927;-93
2021/12/20 09:28:40;;;;;;;;;;;9.10;61.30;;;;;;6198254;23;19942;-93
2021/12/20 09:31:05;;;;;;;;;;;9.20;61.30;;;;;;6201004;23;19926;-95
2021/12/20 09:33:31;;;;;;;;;;;9.20;61.20;;;;;;6228182;23;19904;-94
2021/12/20 09:35:56;;;;;;;;;;;9.20;60.90;;;;;;6227053;23;19912;-94
2021/12/20 09:38:22;;;;;;;;;;;9.20;61.50;;;;;;6228342;23;19959;-94
2021/12/20 09:41:59;;;;;;;;;;;9.30;61.60;;;;;;6200591;23;19920;-95
2021/12/20 09:43:45;;;;;;;;;;;9.30;61.80;;;;;;6222863;23;19915;-96
2021/12/20 09:46:11;;;;;;;;;;;9.40;61.80;;;;;;6204892;23;19892;-93
2021/12/20 09:48:36;;;;;;;;;;;9.50;61.60;;;;;;6202898;23;19958;-94
2021/12/20 09:51:03;;;;;;;;;;;9.60;61.60;;;;;;6199872;23;19919;-94
2021/12/20 09:53:29;;;;;;;;;;;9.70;61.70;;;;;;6202560;23;19915;-96
2021/12/20 09:55:55;;;;;;;;;;;9.80;61.60;;;;;;6203490;23;19916;-92
2021/12/20 09:58:21;;;;;;;;;;;9.80;61.10;;;;;;6229200;23;20236;-95
2021/12/20 10:00:47;;;;;;;;;;;9.80;61.00;;;;;;6200322;23;19911;-96
2021/12/20 10:03:13;;;;;;;;;;;9.70;61.00;;;;;;6199827;23;19908;-95
2021/12/20 10:05:39;;;;;;;;;;;9.70;61.30;;;;;;6203427;23;19912;-92
2021/12/20 10:08:20;;;;;;;;;;;9.80;61.50;;;;;;6200691;23;19904;-96
2021/12/20 10:10:46;;;;;;;;;;;9.80;61.20;;;;;;6199781;23;19970;-94
2021/12/20 10:13:21;;;;;;;;;;;9.80;60.70;;;;;;6199054;23;19904;-93
2021/12/20 10:15:48;;;;;;;;;;;9.80;60.60;;;;;;6199379;23;19919;-96
2021/12/20 10:18:14;;;;;;;;;;;9.70;60.80;;;;;;6226743;23;19904;-94
2021/12/20 10:20:39;;;;;;;;;;;9.70;60.90;;;;;;6199738;23;19951;-95
2021/12/20 10:23:10;;;;;;;;;;;9.70;61.00;;;;;;6223506;23;19908;-96
2021/12/20 10:25:36;;;;;;;;;;;9.70;61.10;;;;;;6222047;23;19912;-93
2021/12/20 10:28:10;;;;;;;;;;;9.80;61.20;;;;;;6223328;23;19911;-94
2021/12/20 10:30:37;;;;;;;;;;;9.80;60.90;;;;;;6196569;23;20370;-94
2021/12/20 10:33:04;;;;;;;;;;;9.80;61.10;;;;;;6223355;23;20050;-93
2021/12/20 10:35:34;;;;;;;;;;;9.80;61.30;;;;;;6197261;23;19907;-94
2021/12/20 10:38:02;;;;;;;;;;;9.90;61.40;;;;;;6196585;23;19911;-94
2021/12/20 10:40:28;;;;;;;;;;;9.90;61.20;;;;;;6197328;23;20394;-92
2021/12/20 10:42:56;;;;;;;;;;;9.90;60.80;;;;;;6196317;23;19936;-94
2021/12/20 10:45:21;;;;;;;;;;;9.90;60.70;;;;;;6199472;23;20329;-94
2021/12/20 10:47:48;;;;;;;;;;;10.00;60.80;;;;;;6204408;23;19931;-94
2021/12/20 10:50:22;;;;;;;;;;;10.00;61.10;;;;;;6201687;23;19900;-93
2021/12/20 10:52:47;;;;;;;;;;;10.00;60.90;;;;;;6203161;23;19904;-94
2021/12/20 10:55:13;;;;;;;;;;;10.00;60.80;;;;;;6201952;23;19943;-93
2021/12/20 10:57:38;;;;;;;;;;;10.00;60.30;;;;;;6203623;23;20341;-94
2021/12/20 11:00:18;;;;;;;;;;;10.00;60.30;;;;;;6202421;23;19934;-95
2021/12/20 11:03:25;;;;;;;;;;;10.00;60.40;;;;;;6226844;23;19939;-95
2021/12/20 11:11:19;;;;;;;;;;;10.20;61.20;;;;;;6221973;23;19938;-93
2021/12/20 11:13:44;;;;;;;;;;;10.30;61.40;;;;;;6221492;23;19904;-92
2021/12/20 11:16:29;;;;;;;;;;;10.30;61.30;;;;;;6195063;23;19923;-92
2021/12/20 11:19:06;;;;;;;;;;;10.30;61.50;;;;;;6196200;23;19904;-91
2021/12/20 11:21:32;;;;;;;;;;;10.30;61.10;;;;;;6224308;23;20003;-91
2021/12/20 11:23:59;;;;;;;;;;;10.30;60.80;;;;;;6224419;23;19908;-93
2021/12/20 11:26:27;;;;;;;;;;;10.40;60.70;;;;;;6224194;23;19999;-93
2021/12/20 11:28:53;;;;;;;;;;;10.50;60.50;;;;;;6226068;23;19912;-91
2021/12/20 11:31:18;;;;;;;;;;;10.50;60.60;;;;;;6223799;23;19912;-91
2021/12/20 11:33:44;;;;;;;;;;;10.50;60.40;;;;;;6198903;23;19948;-92
2021/12/20 11:36:09;;;;;;;;;;;10.50;60.30;;;;;;6198799;23;19904;-92
2021/12/20 11:38:36;;;;;;;;;;;10.50;60.50;;;;;;6198719;23;19911;-92
2021/12/20 11:41:05;;;;;;;;;;;10.50;60.40;;;;;;6200136;23;20339;-92
2021/12/20 11:43:31;;;;;;;;;;;10.50;60.60;;;;;;6198547;23;19915;-92
2021/12/20 11:45:57;;;;;;;;;;;10.60;60.40;;;;;;6226781;23;20355;-92
2021/12/20 11:48:24;;;;;;;;;;;10.60;60.10;;;;;;6199928;23;19904;-92
2021/12/20 11:50:56;;;;;;;;;;;10.60;60.30;;;;;;6196967;23;19908;-93
2021/12/20 11:53:21;;;;;;;;;;;10.60;60.40;;;;;;6183964;23;19943;-91
2021/12/20 11:55:48;;;;;;;;;;;10.60;60.40;;;;;;6223788;23;19986;-91
2021/12/20 11:58:21;;;;;;;;;;;10.60;60.60;;;;;;6221832;23;19954;-92
2021/12/20 12:00:51;;;;;;;;;;;10.60;60.60;;;;;;6196293;23;20271;-93
2021/12/20 12:03:24;;;;;;;;;;;10.70;60.80;;;;;;6223168;23;19939;-91
2021/12/20 12:05:55;;;;;;;;;;;10.60;60.80;;;;;;6223816;23;19911;-93
2021/12/20 12:08:26;;;;;;;;;;;10.70;60.90;;;;;;6197841;23;19912;-93
2021/12/20 12:10:54;;;;;;;;;;;10.60;60.60;;;;;;6198077;23;19978;-93
2021/12/20 12:13:22;;;;;;;;;;;10.60;60.00;;;;;;6197503;23;19918;-92
2021/12/20 12:15:52;;;;;;;;;;;10.50;59.10;;;;;;6198362;23;19987;-93
2021/12/20 12:18:17;;;;;;;;;;;10.30;58.50;;;;;;6198218;23;19923;-91
2021/12/20 12:20:52;;;;;;;;;;;10.20;58.10;;;;;;6196842;23;19943;-93
2021/12/20 12:23:19;;;;;;;;;;;10.00;57.90;;;;;;6222311;23;20221;-93
2021/12/20 12:25:53;;;;;;;;;;;9.80;57.70;;;;;;6199550;23;19911;-93
2021/12/20 12:28:25;;;;;;;;;;;9.60;57.70;;;;;;6197457;23;19946;-93
2021/12/20 12:31:00;;;;;;;;;;;9.50;57.70;;;;;;6194695;23;20002;-92
2021/12/20 12:33:27;;;;;;;;;;;9.30;57.90;;;;;;6194937;23;19923;-92
2021/12/20 12:35:54;;;;;;;;;;;9.10;57.90;;;;;;6196291;23;19904;-92
2021/12/20 12:38:27;;;;;;;;;;;9.10;57.90;;;;;;6196639;23;19943;-92
2021/12/20 12:41:05;;;;;;;;;;;9.00;57.90;;;;;;6196023;23;19908;-92
2021/12/20 12:43:52;;;;;;;;;;;8.90;57.90;;;;;;6195877;23;19924;-92
2021/12/20 12:46:36;;;;;;;;;;;8.80;57.90;;;;;;6222276;23;19973;-91
2021/12/20 12:49:20;;;;;;;;;;;8.70;57.90;;;;;;6197186;23;19915;-92
2021/12/20 12:51:47;;;;;;;;;;;8.70;58.00;;;;;;6197658;23;19907;-92
2021/12/20 12:54:32;;;;;;;;;;;8.60;58.00;;;;;;6196109;23;20248;-92
2021/12/20 12:57:09;;;;;;;;;;;8.50;58.20;;;;;;6195738;23;19912;-92
2021/12/20 12:59:41;;;;;;;;;;;8.50;58.50;;;;;;6194782;23;19915;-92
2021/12/20 13:02:11;;;;;;;;;;;8.40;58.60;;;;;;6194238;23;20240;-93
2021/12/20 13:04:56;;;;;;;;;;;8.40;58.50;;;;;;6196638;23;19908;-93
2021/12/20 13:07:29;;;;;;;;;;;8.40;58.60;;;;;;6221045;23;19990;-92
2021/12/20 13:09:58;;;;;;;;;;;8.30;58.50;;;;;;6222040;23;20217;-92
2021/12/20 13:12:38;;;;;;;;;;;8.30;58.50;;;;;;6194171;23;19912;-92
2021/12/20 13:15:14;;;;;;;;;;;8.30;58.60;;;;;;6221113;23;20280;-93
2021/12/20 13:17:41;;;;;;;;;;;8.20;58.60;;;;;;6193711;23;20305;-92
2021/12/20 13:22:52;;;;;;;;;;;8.20;58.70;;;;;;6222799;23;19916;-92
2021/12/20 13:25:38;;;;;;;;;;;8.20;58.60;;;;;;6221187;23;20012;-92
2021/12/20 13:28:05;;;;;;;;;;;8.10;59.00;;;;;;6194751;23;20332;-92
2021/12/20 13:30:31;;;;;;;;;;;8.10;59.20;;;;;;6195899;23;19907;-92
2021/12/20 13:32:57;;;;;;;;;;;8.10;59.40;;;;;;6194410;23;19916;-92
2021/12/20 13:35:23;;;;;;;;;;;8.10;59.50;;;;;;6220261;23;19987;-92
2021/12/20 13:37:50;;;;;;;;;;;8.10;59.60;;;;;;6194639;23;20628;-92
2021/12/20 13:40:16;;;;;;;;;;;8.00;59.50;;;;;;6194464;23;19919;-92
2021/12/20 13:42:53;;;;;;;;;;;8.10;59.60;;;;;;6192957;23;19915;-93
2021/12/20 13:45:18;;;;;;;;;;;8.10;59.50;;;;;;6192433;23;19944;-93
2021/12/20 13:47:44;;;;;;;;;;;8.00;59.50;;;;;;6220877;23;19912;-92
2021/12/20 13:50:16;;;;;;;;;;;8.00;59.50;;;;;;6221222;23;19912;-92
2021/12/20 13:52:45;;;;;;;;;;;8.00;59.60;;;;;;6194486;23;19916;-92
2021/12/20 13:55:11;;;;;;;;;;;8.00;59.70;;;;;;6219625;23;19927;-92
2021/12/20 13:57:36;;;;;;;;;;;8.00;59.70;;;;;;6195196;23;19904;-92
2021/12/20 14:00:06;;;;;;;;;;;8.00;59.60;;;;;;6221268;23;19916;-93
2021/12/20 14:02:39;;;;;;;;;;;8.00;59.40;;;;;;6196217;23;20262;-93
2021/12/20 14:05:13;;;;;;;;;;;8.00;59.30;;;;;;6222847;23;19912;-92
2021/12/20 14:07:43;;;;;;;;;;;7.90;59.20;;;;;;6195561;23;19907;-92
2021/12/20 14:10:13;;;;;;;;;;;7.90;59.30;;;;;;6223974;23;19919;-92
2021/12/20 14:12:43;;;;;;;;;;;7.90;59.20;;;;;;6196237;23;19936;-93
2021/12/20 14:15:08;;;;;;;;;;;7.80;59.10;;;;;;6222800;23;19939;-92
2021/12/20 14:17:49;;;;;;;;;;;7.80;59.10;;;;;;6195421;23;19912;-91
2021/12/20 14:20:15;;;;;;;;;;;7.80;59.00;;;;;;6196389;23;19912;-90
2021/12/20 14:23:00;;;;;;;;;;;7.70;58.80;;;;;;6194729;23;19914;-92
2021/12/20 14:25:39;;;;;;;;;;;7.70;58.70;;;;;;6193247;23;19954;-92
2021/12/20 14:28:08;;;;;;;;;;;7.70;58.80;;;;;;6195591;23;19911;-92
2021/12/20 14:30:34;;;;;;;;;;;7.60;58.70;;;;;;6193404;23;19999;-92
2021/12/20 14:33:15;;;;;;;;;;;7.60;58.60;;;;;;6220222;23;19907;-93
2021/12/20 14:35:41;;;;;;;;;;;7.60;58.50;;;;;;6220519;23;19911;-93
2021/12/20 14:38:25;;;;;;;;;;;7.50;58.30;;;;;;6192879;23;19904;-93
2021/12/20 14:40:50;;;;;;;;;;;7.50;58.10;;;;;;6194736;23;19912;-92
2021/12/20 14:43:17;;;;;;;;;;;7.50;57.90;;;;;;6194764;23;19908;-93
2021/12/20 14:45:44;;;;;;;;;;;7.40;57.80;;;;;;6194516;23;19939;-92
2021/12/20 14:48:27;;;;;;;;;;;7.30;57.70;;;;;;6193455;23;19904;-91
2021/12/20 14:50:55;;;;;;;;;;;7.30;57.70;;;;;;6220337;23;19919;-92
2021/12/20 14:53:24;;;;;;;;;;;7.20;57.70;;;;;;6221942;23;19916;-92